sensor_id;sensor_type;location;lat;lon;timestamp;pressure;altitude;pressure_sealevel;temperature;humidity
35694;BME280;21812;55.536;37.664;2024-02-21T00:00:15;100664.25;;;-7.52;60.66
35694;BME280;21812;55.536;37.664;2024-02-21T00:02:41;100652.09;;;-7.50;61.02
35694;BME280;21812;55.536;37.664;2024-02-21T00:05:07;100655.34;;;-7.44;61.39
35694;BME280;21812;55.536;37.664;2024-02-21T00:07:32;100653.50;;;-7.41;61.55
35694;BME280;21812;55.536;37.664;2024-02-21T00:09:58;100645.63;;;-7.38;62.02
35694;BME280;21812;55.536;37.664;2024-02-21T00:12:24;100640.34;;;-7.35;61.99
35694;BME280;21812;55.536;37.664;2024-02-21T00:14:49;100643.22;;;-7.19;62.07
35694;BME280;21812;55.536;37.664;2024-02-21T00:17:15;100647.31;;;-7.12;61.46
35694;BME280;21812;55.536;37.664;2024-02-21T00:19:41;100642.13;;;-7.12;61.50
35694;BME280;21812;55.536;37.664;2024-02-21T00:22:07;100633.53;;;-7.14;61.02
35694;BME280;21812;55.536;37.664;2024-02-21T00:24:33;100641.66;;;-6.99;60.79
35694;BME280;21812;55.536;37.664;2024-02-21T00:26:59;100626.88;;;-6.97;60.17
35694;BME280;21812;55.536;37.664;2024-02-21T00:29:24;100632.56;;;-6.88;59.60
35694;BME280;21812;55.536;37.664;2024-02-21T00:31:51;100635.34;;;-6.92;60.42
35694;BME280;21812;55.536;37.664;2024-02-21T00:34:17;100636.13;;;-6.90;60.14
35694;BME280;21812;55.536;37.664;2024-02-21T00:36:42;100630.69;;;-6.84;60.52
35694;BME280;21812;55.536;37.664;2024-02-21T00:39:08;100637.47;;;-6.80;60.44
35694;BME280;21812;55.536;37.664;2024-02-21T00:41:34;100633.00;;;-6.76;60.61
35694;BME280;21812;55.536;37.664;2024-02-21T00:43:59;100623.59;;;-6.79;60.58
35694;BME280;21812;55.536;37.664;2024-02-21T00:46:25;100597.00;;;-6.85;61.06
35694;BME280;21812;55.536;37.664;2024-02-21T00:48:51;100620.66;;;-6.70;61.25
35694;BME280;21812;55.536;37.664;2024-02-21T00:51:16;100610.31;;;-6.71;60.47
35694;BME280;21812;55.536;37.664;2024-02-21T00:53:42;100606.63;;;-6.65;60.76
35694;BME280;21812;55.536;37.664;2024-02-21T00:56:08;100604.03;;;-6.65;61.30
35694;BME280;21812;55.536;37.664;2024-02-21T00:58:34;100595.31;;;-6.64;60.80
35694;BME280;21812;55.536;37.664;2024-02-21T01:01:00;100609.00;;;-6.59;60.64
35694;BME280;21812;55.536;37.664;2024-02-21T01:03:27;100612.56;;;-6.62;60.95
35694;BME280;21812;55.536;37.664;2024-02-21T01:05:52;100597.31;;;-6.71;60.79
35694;BME280;21812;55.536;37.664;2024-02-21T01:08:18;100598.91;;;-6.67;61.12
35694;BME280;21812;55.536;37.664;2024-02-21T01:10:43;100597.28;;;-6.70;61.55
35694;BME280;21812;55.536;37.664;2024-02-21T01:13:09;100596.59;;;-6.75;61.13
35694;BME280;21812;55.536;37.664;2024-02-21T01:15:35;100551.75;;;-7.02;61.73
35694;BME280;21812;55.536;37.664;2024-02-21T01:18:01;100586.44;;;-6.81;62.41
35694;BME280;21812;55.536;37.664;2024-02-21T01:20:27;100592.41;;;-6.79;62.80
35694;BME280;21812;55.536;37.664;2024-02-21T01:22:52;100591.88;;;-6.65;63.52
35694;BME280;21812;55.536;37.664;2024-02-21T01:25:18;100598.13;;;-6.47;63.52
35694;BME280;21812;55.536;37.664;2024-02-21T01:27:44;100588.28;;;-6.39;63.43
35694;BME280;21812;55.536;37.664;2024-02-21T01:30:10;100588.94;;;-6.34;62.69
35694;BME280;21812;55.536;37.664;2024-02-21T01:32:39;100545.44;;;-6.51;62.93
35694;BME280;21812;55.536;37.664;2024-02-21T01:35:04;100572.94;;;-6.24;63.01
35694;BME280;21812;55.536;37.664;2024-02-21T01:37:30;100565.25;;;-6.26;63.59
35694;BME280;21812;55.536;37.664;2024-02-21T01:39:56;100582.81;;;-6.11;63.33
35694;BME280;21812;55.536;37.664;2024-02-21T01:42:21;100573.91;;;-6.05;62.78
35694;BME280;21812;55.536;37.664;2024-02-21T01:44:47;100530.56;;;-6.26;62.58
35694;BME280;21812;55.536;37.664;2024-02-21T01:47:13;100569.34;;;-6.00;63.06
35694;BME280;21812;55.536;37.664;2024-02-21T01:49:41;100515.91;;;-6.27;62.84
35694;BME280;21812;55.536;37.664;2024-02-21T01:52:07;100564.78;;;-5.95;63.06
35694;BME280;21812;55.536;37.664;2024-02-21T01:54:34;100571.59;;;-5.92;62.83
35694;BME280;21812;55.536;37.664;2024-02-21T01:57:00;100564.72;;;-5.93;63.21
35694;BME280;21812;55.536;37.664;2024-02-21T01:59:26;100553.47;;;-5.94;63.08
35694;BME280;21812;55.536;37.664;2024-02-21T02:01:52;100564.28;;;-5.82;63.25
35694;BME280;21812;55.536;37.664;2024-02-21T02:04:20;100559.06;;;-5.82;63.02
35694;BME280;21812;55.536;37.664;2024-02-21T02:06:46;100561.47;;;-5.78;62.92
35694;BME280;21812;55.536;37.664;2024-02-21T02:09:11;100559.53;;;-5.73;63.35
35694;BME280;21812;55.536;37.664;2024-02-21T02:11:37;100561.34;;;-5.75;63.04
35694;BME280;21812;55.536;37.664;2024-02-21T02:14:03;100559.59;;;-5.74;63.14
35694;BME280;21812;55.536;37.664;2024-02-21T02:16:29;100557.50;;;-5.66;63.54
35694;BME280;21812;55.536;37.664;2024-02-21T02:18:55;100543.03;;;-5.73;63.07
35694;BME280;21812;55.536;37.664;2024-02-21T02:21:29;100543.84;;;-5.71;63.78
35694;BME280;21812;55.536;37.664;2024-02-21T02:23:57;100543.53;;;-5.63;63.35
35694;BME280;21812;55.536;37.664;2024-02-21T02:26:23;100519.00;;;-5.78;63.30
35694;BME280;21812;55.536;37.664;2024-02-21T02:28:49;100551.25;;;-5.62;63.27
35694;BME280;21812;55.536;37.664;2024-02-21T02:31:14;100545.91;;;-5.59;63.41
35694;BME280;21812;55.536;37.664;2024-02-21T02:33:42;100491.69;;;-5.89;63.44
35694;BME280;21812;55.536;37.664;2024-02-21T02:36:09;100548.50;;;-5.59;63.46
35694;BME280;21812;55.536;37.664;2024-02-21T02:38:35;100506.91;;;-5.79;63.90
35694;BME280;21812;55.536;37.664;2024-02-21T02:41:00;100541.97;;;-5.48;63.79
35694;BME280;21812;55.536;37.664;2024-02-21T02:43:26;100549.88;;;-5.50;63.86
35694;BME280;21812;55.536;37.664;2024-02-21T02:45:52;100552.66;;;-5.55;63.96
35694;BME280;21812;55.536;37.664;2024-02-21T02:48:18;100542.53;;;-5.61;64.03
35694;BME280;21812;55.536;37.664;2024-02-21T02:50:45;100550.78;;;-5.51;63.96
35694;BME280;21812;55.536;37.664;2024-02-21T02:53:11;100544.59;;;-5.48;63.74
35694;BME280;21812;55.536;37.664;2024-02-21T02:55:37;100546.78;;;-5.39;63.72
35694;BME280;21812;55.536;37.664;2024-02-21T02:58:03;100551.72;;;-5.33;63.52
35694;BME280;21812;55.536;37.664;2024-02-21T03:00:29;100546.59;;;-5.35;63.51
35694;BME280;21812;55.536;37.664;2024-02-21T03:02:55;100536.38;;;-5.39;63.72
35694;BME280;21812;55.536;37.664;2024-02-21T03:05:21;100554.84;;;-5.25;63.49
35694;BME280;21812;55.536;37.664;2024-02-21T03:07:47;100544.84;;;-5.34;63.40
35694;BME280;21812;55.536;37.664;2024-02-21T03:10:14;100547.09;;;-5.26;63.62
35694;BME280;21812;55.536;37.664;2024-02-21T03:12:42;100549.47;;;-5.22;63.51
35694;BME280;21812;55.536;37.664;2024-02-21T03:15:08;100551.88;;;-5.17;63.79
35694;BME280;21812;55.536;37.664;2024-02-21T03:17:34;100532.88;;;-5.19;63.74
35694;BME280;21812;55.536;37.664;2024-02-21T03:20:01;100537.94;;;-5.16;63.84
35694;BME280;21812;55.536;37.664;2024-02-21T03:22:30;100539.50;;;-5.12;63.39
35694;BME280;21812;55.536;37.664;2024-02-21T03:24:56;100532.66;;;-5.15;63.96
35694;BME280;21812;55.536;37.664;2024-02-21T03:27:21;100529.63;;;-5.05;63.83
35694;BME280;21812;55.536;37.664;2024-02-21T03:29:47;100513.31;;;-5.09;63.34
35694;BME280;21812;55.536;37.664;2024-02-21T03:32:13;100515.56;;;-5.01;63.28
35694;BME280;21812;55.536;37.664;2024-02-21T03:34:38;100520.63;;;-4.98;63.53
35694;BME280;21812;55.536;37.664;2024-02-21T03:37:04;100510.50;;;-5.04;63.01
35694;BME280;21812;55.536;37.664;2024-02-21T03:39:33;100529.00;;;-4.92;63.32
35694;BME280;21812;55.536;37.664;2024-02-21T03:41:59;100523.78;;;-4.92;63.27
35694;BME280;21812;55.536;37.664;2024-02-21T03:44:31;100524.56;;;-4.89;63.19
35694;BME280;21812;55.536;37.664;2024-02-21T03:46:58;100521.25;;;-4.93;63.05
35694;BME280;21812;55.536;37.664;2024-02-21T03:49:23;100522.94;;;-4.92;63.30
35694;BME280;21812;55.536;37.664;2024-02-21T03:51:49;100523.53;;;-4.85;63.51
35694;BME280;21812;55.536;37.664;2024-02-21T03:54:15;100521.88;;;-4.88;63.26
35694;BME280;21812;55.536;37.664;2024-02-21T03:56:40;100523.06;;;-4.95;63.49
35694;BME280;21812;55.536;37.664;2024-02-21T03:59:07;100529.28;;;-4.98;63.72
35694;BME280;21812;55.536;37.664;2024-02-21T04:01:36;100525.13;;;-5.02;63.77
35694;BME280;21812;55.536;37.664;2024-02-21T04:04:02;100526.13;;;-5.04;63.87
35694;BME280;21812;55.536;37.664;2024-02-21T04:06:28;100531.81;;;-4.96;64.10
35694;BME280;21812;55.536;37.664;2024-02-21T04:08:54;100532.59;;;-4.94;63.73
35694;BME280;21812;55.536;37.664;2024-02-21T04:11:20;100527.31;;;-4.93;63.74
35694;BME280;21812;55.536;37.664;2024-02-21T04:13:45;100530.00;;;-4.94;64.05
35694;BME280;21812;55.536;37.664;2024-02-21T04:16:16;100495.31;;;-5.14;64.10
35694;BME280;21812;55.536;37.664;2024-02-21T04:18:42;100516.97;;;-4.94;63.98
35694;BME280;21812;55.536;37.664;2024-02-21T04:21:09;100526.97;;;-4.85;63.83
35694;BME280;21812;55.536;37.664;2024-02-21T04:23:34;100527.09;;;-4.88;64.02
35694;BME280;21812;55.536;37.664;2024-02-21T04:26:00;100537.44;;;-4.86;63.90
35694;BME280;21812;55.536;37.664;2024-02-21T04:28:26;100516.25;;;-4.98;64.28
35694;BME280;21812;55.536;37.664;2024-02-21T04:30:52;100519.28;;;-4.88;64.07
35694;BME280;21812;55.536;37.664;2024-02-21T04:33:18;100540.88;;;-4.86;64.00
35694;BME280;21812;55.536;37.664;2024-02-21T04:35:44;100532.16;;;-4.85;64.36
35694;BME280;21812;55.536;37.664;2024-02-21T04:38:09;100543.84;;;-4.75;64.26
35694;BME280;21812;55.536;37.664;2024-02-21T04:40:35;100536.72;;;-4.71;63.90
35694;BME280;21812;55.536;37.664;2024-02-21T04:43:01;100534.34;;;-4.76;63.51
35694;BME280;21812;55.536;37.664;2024-02-21T04:45:26;100507.81;;;-5.03;64.06
35694;BME280;21812;55.536;37.664;2024-02-21T04:47:52;100534.13;;;-4.90;64.79
35694;BME280;21812;55.536;37.664;2024-02-21T04:50:18;100538.94;;;-4.81;64.70
35694;BME280;21812;55.536;37.664;2024-02-21T04:52:43;100538.44;;;-4.70;64.73
35694;BME280;21812;55.536;37.664;2024-02-21T04:55:09;100528.19;;;-4.75;64.28
35694;BME280;21812;55.536;37.664;2024-02-21T04:57:35;100535.59;;;-4.65;64.38
35694;BME280;21812;55.536;37.664;2024-02-21T05:00:00;100532.97;;;-4.65;63.91
35694;BME280;21812;55.536;37.664;2024-02-21T05:02:28;100527.78;;;-4.65;64.25
35694;BME280;21812;55.536;37.664;2024-02-21T05:04:53;100533.44;;;-4.57;64.18
35694;BME280;21812;55.536;37.664;2024-02-21T05:07:19;100540.75;;;-4.64;63.55
35694;BME280;21812;55.536;37.664;2024-02-21T05:09:45;100539.59;;;-4.58;64.21
35694;BME280;21812;55.536;37.664;2024-02-21T05:12:11;100539.44;;;-4.55;63.83
35694;BME280;21812;55.536;37.664;2024-02-21T05:14:37;100541.13;;;-4.54;63.64
35694;BME280;21812;55.536;37.664;2024-02-21T05:17:04;100497.63;;;-4.71;63.98
35694;BME280;21812;55.536;37.664;2024-02-21T05:19:30;100530.72;;;-4.54;63.60
35694;BME280;21812;55.536;37.664;2024-02-21T05:21:56;100536.75;;;-4.54;64.04
35694;BME280;21812;55.536;37.664;2024-02-21T05:24:21;100534.22;;;-4.55;63.92
35694;BME280;21812;55.536;37.664;2024-02-21T05:26:47;100526.41;;;-4.55;63.72
35694;BME280;21812;55.536;37.664;2024-02-21T05:29:12;100520.59;;;-4.60;63.93
35694;BME280;21812;55.536;37.664;2024-02-21T05:34:19;100527.97;;;-4.51;63.98
35694;BME280;21812;55.536;37.664;2024-02-21T05:36:45;100537.94;;;-4.42;64.43
35694;BME280;21812;55.536;37.664;2024-02-21T05:39:13;100525.91;;;-4.44;64.09
35694;BME280;21812;55.536;37.664;2024-02-21T05:41:38;100531.50;;;-4.35;63.93
35694;BME280;21812;55.536;37.664;2024-02-21T05:44:04;100538.41;;;-4.34;63.85
35694;BME280;21812;55.536;37.664;2024-02-21T05:46:30;100523.97;;;-4.41;63.80
35694;BME280;21812;55.536;37.664;2024-02-21T05:48:55;100532.28;;;-4.33;63.72
35694;BME280;21812;55.536;37.664;2024-02-21T05:51:21;100494.06;;;-4.51;63.94
35694;BME280;21812;55.536;37.664;2024-02-21T05:53:46;100528.69;;;-4.30;63.62
35694;BME280;21812;55.536;37.664;2024-02-21T05:56:13;100534.59;;;-4.26;63.49
35694;BME280;21812;55.536;37.664;2024-02-21T05:58:39;100527.44;;;-4.40;63.34
35694;BME280;21812;55.536;37.664;2024-02-21T06:01:05;100519.84;;;-4.45;64.20
35694;BME280;21812;55.536;37.664;2024-02-21T06:03:33;100519.41;;;-4.36;64.17
35694;BME280;21812;55.536;37.664;2024-02-21T06:06:02;100545.16;;;-4.29;63.58
35694;BME280;21812;55.536;37.664;2024-02-21T06:08:28;100517.56;;;-4.34;63.56
35694;BME280;21812;55.536;37.664;2024-02-21T06:10:54;100536.72;;;-4.17;63.59
35694;BME280;21812;55.536;37.664;2024-02-21T06:13:21;100530.16;;;-4.24;63.71
35694;BME280;21812;55.536;37.664;2024-02-21T06:15:47;100527.81;;;-4.30;63.92
35694;BME280;21812;55.536;37.664;2024-02-21T06:18:13;100530.03;;;-4.23;64.25
35694;BME280;21812;55.536;37.664;2024-02-21T06:20:39;100528.06;;;-4.18;63.89
35694;BME280;21812;55.536;37.664;2024-02-21T06:23:06;100535.06;;;-4.01;63.91
35694;BME280;21812;55.536;37.664;2024-02-21T06:25:32;100527.16;;;-3.99;63.67
35694;BME280;21812;55.536;37.664;2024-02-21T06:27:58;100535.69;;;-3.96;63.62
35694;BME280;21812;55.536;37.664;2024-02-21T06:30:23;100534.97;;;-3.99;63.26
35694;BME280;21812;55.536;37.664;2024-02-21T06:32:49;100542.25;;;-3.88;63.86
35694;BME280;21812;55.536;37.664;2024-02-21T06:35:15;100517.09;;;-3.89;63.27
35694;BME280;21812;55.536;37.664;2024-02-21T06:37:40;100522.34;;;-3.74;62.80
35694;BME280;21812;55.536;37.664;2024-02-21T06:40:07;100528.81;;;-3.63;62.57
35694;BME280;21812;55.536;37.664;2024-02-21T06:42:32;100528.44;;;-3.73;62.29
35694;BME280;21812;55.536;37.664;2024-02-21T06:44:58;100536.34;;;-3.75;62.54
35694;BME280;21812;55.536;37.664;2024-02-21T06:47:24;100543.94;;;-3.70;62.48
35694;BME280;21812;55.536;37.664;2024-02-21T06:49:50;100527.44;;;-3.70;62.19
35694;BME280;21812;55.536;37.664;2024-02-21T06:52:19;100523.34;;;-3.59;61.96
35694;BME280;21812;55.536;37.664;2024-02-21T06:54:49;100535.44;;;-3.40;62.12
35694;BME280;21812;55.536;37.664;2024-02-21T06:57:15;100538.56;;;-3.34;61.76
35694;BME280;21812;55.536;37.664;2024-02-21T06:59:41;100538.88;;;-3.40;61.65
35694;BME280;21812;55.536;37.664;2024-02-21T07:02:07;100535.59;;;-3.43;61.67
35694;BME280;21812;55.536;37.664;2024-02-21T07:04:33;100526.22;;;-3.47;61.56
35694;BME280;21812;55.536;37.664;2024-02-21T07:06:59;100525.97;;;-3.43;61.63
35694;BME280;21812;55.536;37.664;2024-02-21T07:09:25;100533.19;;;-3.30;61.54
35694;BME280;21812;55.536;37.664;2024-02-21T07:11:51;100518.00;;;-3.24;61.22
35694;BME280;21812;55.536;37.664;2024-02-21T07:14:18;100498.38;;;-3.31;61.09
35694;BME280;21812;55.536;37.664;2024-02-21T07:16:44;100519.13;;;-3.12;61.14
35694;BME280;21812;55.536;37.664;2024-02-21T07:19:10;100514.06;;;-3.15;61.30
35694;BME280;21812;55.536;37.664;2024-02-21T07:21:35;100516.59;;;-2.98;61.68
35694;BME280;21812;55.536;37.664;2024-02-21T07:24:04;100520.00;;;-2.80;60.89
35694;BME280;21812;55.536;37.664;2024-02-21T07:26:31;100480.09;;;-2.99;60.22
35694;BME280;21812;55.536;37.664;2024-02-21T07:28:57;100495.50;;;-3.10;59.74
35694;BME280;21812;55.536;37.664;2024-02-21T07:31:22;100504.31;;;-3.11;60.62
35694;BME280;21812;55.536;37.664;2024-02-21T07:33:48;100507.50;;;-3.06;60.64
35694;BME280;21812;55.536;37.664;2024-02-21T07:36:15;100482.38;;;-3.25;60.50
35694;BME280;21812;55.536;37.664;2024-02-21T07:38:41;100510.88;;;-3.04;60.27
35694;BME280;21812;55.536;37.664;2024-02-21T07:41:07;100512.56;;;-3.03;60.20
35694;BME280;21812;55.536;37.664;2024-02-21T07:43:33;100505.66;;;-3.04;60.21
35694;BME280;21812;55.536;37.664;2024-02-21T07:45:58;100499.50;;;-3.03;60.64
35694;BME280;21812;55.536;37.664;2024-02-21T07:48:24;100500.09;;;-2.98;59.92
35694;BME280;21812;55.536;37.664;2024-02-21T07:50:52;100495.78;;;-2.99;60.50
35694;BME280;21812;55.536;37.664;2024-02-21T07:53:19;100506.06;;;-2.96;60.22
35694;BME280;21812;55.536;37.664;2024-02-21T07:55:45;100504.13;;;-2.92;60.16
35694;BME280;21812;55.536;37.664;2024-02-21T07:58:11;100510.28;;;-2.78;60.11
35694;BME280;21812;55.536;37.664;2024-02-21T08:00:36;100507.16;;;-2.68;59.68
35694;BME280;21812;55.536;37.664;2024-02-21T08:03:02;100502.94;;;-2.71;59.08
35694;BME280;21812;55.536;37.664;2024-02-21T08:05:28;100495.84;;;-2.69;59.18
35694;BME280;21812;55.536;37.664;2024-02-21T08:07:55;100509.66;;;-2.51;58.88
35694;BME280;21812;55.536;37.664;2024-02-21T08:10:21;100499.00;;;-2.48;58.93
35694;BME280;21812;55.536;37.664;2024-02-21T08:12:46;100499.38;;;-2.54;58.96
35694;BME280;21812;55.536;37.664;2024-02-21T08:15:12;100498.50;;;-2.39;59.14
35694;BME280;21812;55.536;37.664;2024-02-21T08:17:38;100504.97;;;-2.30;58.34
35694;BME280;21812;55.536;37.664;2024-02-21T08:20:04;100504.09;;;-2.14;57.76
35694;BME280;21812;55.536;37.664;2024-02-21T08:22:30;100506.44;;;-2.10;57.49
35694;BME280;21812;55.536;37.664;2024-02-21T08:24:56;100494.47;;;-2.14;57.08
35694;BME280;21812;55.536;37.664;2024-02-21T08:27:21;100494.59;;;-2.31;57.97
35694;BME280;21812;55.536;37.664;2024-02-21T08:29:47;100501.63;;;-2.48;58.50
35694;BME280;21812;55.536;37.664;2024-02-21T08:32:13;100507.09;;;-2.37;58.82
35694;BME280;21812;55.536;37.664;2024-02-21T08:34:39;100492.38;;;-2.23;57.63
35694;BME280;21812;55.536;37.664;2024-02-21T08:37:04;100501.50;;;-2.30;58.03
35694;BME280;21812;55.536;37.664;2024-02-21T08:39:30;100504.78;;;-2.27;58.50
35694;BME280;21812;55.536;37.664;2024-02-21T08:41:56;100503.50;;;-2.20;58.49
35694;BME280;21812;55.536;37.664;2024-02-21T08:44:27;100486.78;;;-2.17;58.71
35694;BME280;21812;55.536;37.664;2024-02-21T08:46:53;100496.16;;;-1.99;58.12
35694;BME280;21812;55.536;37.664;2024-02-21T08:49:19;100488.59;;;-1.89;58.22
35694;BME280;21812;55.536;37.664;2024-02-21T08:51:45;100498.81;;;-1.84;57.70
35694;BME280;21812;55.536;37.664;2024-02-21T08:54:12;100497.41;;;-1.90;57.88
35694;BME280;21812;55.536;37.664;2024-02-21T08:56:37;100489.94;;;-1.82;58.41
35694;BME280;21812;55.536;37.664;2024-02-21T08:59:03;100486.94;;;-1.75;57.96
35694;BME280;21812;55.536;37.664;2024-02-21T09:01:29;100486.47;;;-1.68;57.04
35694;BME280;21812;55.536;37.664;2024-02-21T09:03:55;100484.91;;;-1.70;57.70
35694;BME280;21812;55.536;37.664;2024-02-21T09:06:22;100493.97;;;-1.76;57.65
35694;BME280;21812;55.536;37.664;2024-02-21T09:08:48;100488.91;;;-1.79;57.80
35694;BME280;21812;55.536;37.664;2024-02-21T09:11:14;100484.91;;;-1.70;57.70
35694;BME280;21812;55.536;37.664;2024-02-21T09:13:40;100484.91;;;-1.70;58.12
35694;BME280;21812;55.536;37.664;2024-02-21T09:16:06;100476.66;;;-1.64;57.21
35694;BME280;21812;55.536;37.664;2024-02-21T09:18:32;100477.78;;;-1.68;57.54
35694;BME280;21812;55.536;37.664;2024-02-21T09:20:57;100467.69;;;-1.74;57.48
35694;BME280;21812;55.536;37.664;2024-02-21T09:23:26;100479.84;;;-1.73;57.55
35694;BME280;21812;55.536;37.664;2024-02-21T09:25:52;100466.84;;;-1.75;57.81
35694;BME280;21812;55.536;37.664;2024-02-21T09:28:18;100477.31;;;-1.61;57.99
35694;BME280;21812;55.536;37.664;2024-02-21T09:30:44;100468.16;;;-1.53;57.73
35694;BME280;21812;55.536;37.664;2024-02-21T09:33:11;100461.41;;;-1.43;57.21
35694;BME280;21812;55.536;37.664;2024-02-21T09:35:36;100463.09;;;-1.42;57.39
35694;BME280;21812;55.536;37.664;2024-02-21T09:38:02;100471.44;;;-1.50;57.15
35694;BME280;21812;55.536;37.664;2024-02-21T09:40:28;100461.97;;;-1.52;57.57
35694;BME280;21812;55.536;37.664;2024-02-21T09:43:03;100451.22;;;-1.48;57.60
35694;BME280;21812;55.536;37.664;2024-02-21T09:45:33;100468.44;;;-1.58;56.88
35694;BME280;21812;55.536;37.664;2024-02-21T09:48:11;100459.44;;;-1.40;57.60
35694;BME280;21812;55.536;37.664;2024-02-21T09:50:40;100441.56;;;-1.33;57.54
35694;BME280;21812;55.536;37.664;2024-02-21T09:53:09;100451.53;;;-1.11;57.62
35694;BME280;21812;55.536;37.664;2024-02-21T09:55:37;100453.81;;;-1.19;57.28
35694;BME280;21812;55.536;37.664;2024-02-21T09:58:05;100449.38;;;-1.19;56.93
35694;BME280;21812;55.536;37.664;2024-02-21T10:00:31;100443.97;;;-1.15;57.17
35694;BME280;21812;55.536;37.664;2024-02-21T10:02:58;100415.38;;;-1.33;57.11
35694;BME280;21812;55.536;37.664;2024-02-21T10:05:24;100449.28;;;-1.03;56.90
35694;BME280;21812;55.536;37.664;2024-02-21T10:07:53;100430.44;;;-0.95;57.51
35694;BME280;21812;55.536;37.664;2024-02-21T10:10:21;100435.22;;;-0.74;56.31
35694;BME280;21812;55.536;37.664;2024-02-21T10:12:51;100432.75;;;-0.50;55.89
35694;BME280;21812;55.536;37.664;2024-02-21T10:15:21;100411.00;;;-0.65;55.64
35694;BME280;21812;55.536;37.664;2024-02-21T10:18:01;100433.81;;;-0.53;55.20
35694;BME280;21812;55.536;37.664;2024-02-21T10:20:29;100430.13;;;-0.50;55.26
35694;BME280;21812;55.536;37.664;2024-02-21T10:25:28;100444.47;;;-0.69;55.64
35694;BME280;21812;55.536;37.664;2024-02-21T10:27:55;100439.94;;;-0.80;56.28
35694;BME280;21812;55.536;37.664;2024-02-21T10:30:21;100434.69;;;-0.80;56.17
35694;BME280;21812;55.536;37.664;2024-02-21T10:32:53;100432.59;;;-0.74;56.43
35694;BME280;21812;55.536;37.664;2024-02-21T10:35:30;100435.94;;;-0.72;56.07
35694;BME280;21812;55.536;37.664;2024-02-21T10:37:57;100439.19;;;-0.82;56.20
35694;BME280;21812;55.536;37.664;2024-02-21T10:40:27;100437.59;;;-0.84;56.27
35694;BME280;21812;55.536;37.664;2024-02-21T10:42:58;100368.38;;;-1.22;56.82
35694;BME280;21812;55.536;37.664;2024-02-21T10:47:56;100440.63;;;-0.90;56.33
35694;BME280;21812;55.536;37.664;2024-02-21T10:50:25;100441.03;;;-0.96;56.76
35694;BME280;21812;55.536;37.664;2024-02-21T10:53:19;100389.59;;;-1.26;56.62
35694;BME280;21812;55.536;37.664;2024-02-21T10:55:56;100413.69;;;-1.07;57.15
35694;BME280;21812;55.536;37.664;2024-02-21T10:58:24;100442.34;;;-1.04;56.69
35694;BME280;21812;55.536;37.664;2024-02-21T11:00:51;100434.41;;;-1.16;56.99
35694;BME280;21812;55.536;37.664;2024-02-21T11:03:17;100438.00;;;-1.17;57.37
35694;BME280;21812;55.536;37.664;2024-02-21T11:05:43;100432.19;;;-1.23;57.22
35694;BME280;21812;55.536;37.664;2024-02-21T11:08:10;100426.22;;;-1.39;57.61
35694;BME280;21812;55.536;37.664;2024-02-21T11:10:36;100431.09;;;-1.47;57.81
35694;BME280;21812;55.536;37.664;2024-02-21T11:13:09;100342.13;;;-1.90;58.66
35694;BME280;21812;55.536;37.664;2024-02-21T11:15:35;100420.31;;;-1.28;57.99
35694;BME280;21812;55.536;37.664;2024-02-21T11:18:01;100421.19;;;-1.42;57.75
35694;BME280;21812;55.536;37.664;2024-02-21T11:20:37;100425.28;;;-1.38;57.97
35694;BME280;21812;55.536;37.664;2024-02-21T11:23:03;100415.56;;;-1.36;58.05
35694;BME280;21812;55.536;37.664;2024-02-21T11:25:29;100413.66;;;-1.34;58.50
35694;BME280;21812;55.536;37.664;2024-02-21T11:28:03;100353.09;;;-1.57;58.37
35694;BME280;21812;55.536;37.664;2024-02-21T11:30:30;100402.44;;;-1.22;57.91
35694;BME280;21812;55.536;37.664;2024-02-21T11:33:00;100372.53;;;-1.46;57.53
35694;BME280;21812;55.536;37.664;2024-02-21T11:35:31;100406.47;;;-1.30;57.72
35694;BME280;21812;55.536;37.664;2024-02-21T11:38:08;100361.63;;;-1.67;58.35
35694;BME280;21812;55.536;37.664;2024-02-21T11:40:34;100390.31;;;-1.51;58.46
35694;BME280;21812;55.536;37.664;2024-02-21T11:43:03;100405.56;;;-1.44;58.97
35694;BME280;21812;55.536;37.664;2024-02-21T11:45:29;100400.22;;;-1.42;58.77
35694;BME280;21812;55.536;37.664;2024-02-21T11:47:55;100400.00;;;-1.39;58.55
35694;BME280;21812;55.536;37.664;2024-02-21T11:50:21;100392.00;;;-1.50;58.08
35694;BME280;21812;55.536;37.664;2024-02-21T11:52:48;100388.28;;;-1.61;58.71
35694;BME280;21812;55.536;37.664;2024-02-21T11:55:14;100408.78;;;-1.67;58.90
35694;BME280;21812;55.536;37.664;2024-02-21T11:57:39;100399.41;;;-1.71;59.61
35694;BME280;21812;55.536;37.664;2024-02-21T12:00:13;100365.22;;;-1.83;59.38
35694;BME280;21812;55.536;37.664;2024-02-21T12:02:40;100385.88;;;-1.64;59.18
35694;BME280;21812;55.536;37.664;2024-02-21T12:05:07;100398.28;;;-1.53;59.28
35694;BME280;21812;55.536;37.664;2024-02-21T12:07:33;100381.25;;;-1.60;58.71
35694;BME280;21812;55.536;37.664;2024-02-21T12:09:59;100391.28;;;-1.67;58.92
35694;BME280;21812;55.536;37.664;2024-02-21T12:12:25;100394.56;;;-1.78;59.18
35694;BME280;21812;55.536;37.664;2024-02-21T12:14:56;100403.28;;;-1.77;59.23
35694;BME280;21812;55.536;37.664;2024-02-21T12:17:23;100401.88;;;-1.83;59.57
35694;BME280;21812;55.536;37.664;2024-02-21T12:19:50;100344.09;;;-2.23;59.96
35694;BME280;21812;55.536;37.664;2024-02-21T12:22:18;100390.56;;;-1.98;59.89
35694;BME280;21812;55.536;37.664;2024-02-21T12:24:44;100387.94;;;-1.98;60.22
35694;BME280;21812;55.536;37.664;2024-02-21T12:27:13;100386.22;;;-1.99;60.12
35694;BME280;21812;55.536;37.664;2024-02-21T12:29:39;100382.31;;;-2.06;60.37
35694;BME280;21812;55.536;37.664;2024-02-21T12:32:05;100377.34;;;-2.10;60.36
35694;BME280;21812;55.536;37.664;2024-02-21T12:34:30;100384.84;;;-2.04;60.57
35694;BME280;21812;55.536;37.664;2024-02-21T12:36:59;100371.09;;;-2.08;60.59
35694;BME280;21812;55.536;37.664;2024-02-21T12:39:25;100384.47;;;-2.12;60.34
35694;BME280;21812;55.536;37.664;2024-02-21T12:41:54;100369.22;;;-2.20;60.58
35694;BME280;21812;55.536;37.664;2024-02-21T12:44:21;100377.91;;;-2.20;60.92